Impacts METAR Board INFO
IDs:

KBOS - Boston/Logan Intl, MA, US

Updated at: 0026 UTC 12 Dec 2017
Potential Impact None Slight Moderate High
Time11/12Z 11/13Z 11/14Z 11/15Z 11/16Z 11/17Z 11/18Z 11/19Z 11/20Z 11/21Z 11/22Z 11/23Z 12/00Z
VIS10 10 10 10 10 10 10 10 10 10 10 10 10
CIG60 60 95 95 -- -- -- -- -- -- 170 170 170
CoverOVCOVCBKNBKNFEWFEWFEWSCTSCTSCTBKNBKNBKN
FltCatVFRVFRVFRVFRVFRVFRVFRVFRVFRVFRVFRVFRVFR
WX--------------------------
WDir220230230240230280280280270300280290300
WSpd13 12 11 11 9 15 13 9 9 6 6 7 4
WGst-- 20 -- -- -- 21 -- -- -- -- -- -- --
Raw hourly METARs
KBOS 111154Z 22013KT 10SM OVC060 00/M05 A2996 RMK AO2 SLP144 T00001050 10006 20000 53010
KBOS 111254Z 23012G20KT 10SM OVC060 01/M05 A2997 RMK AO2 SLP149 T00061050
KBOS 111354Z 23011KT 10SM BKN095 01/M04 A2998 RMK AO2 SLP150 T00061044
KBOS 111454Z 24011KT 10SM BKN095 01/M05 A2998 RMK AO2 SLP153 T00111050 51009
KBOS 111554Z 23009KT 10SM FEW090 02/M04 A2997 RMK AO2 SLP147 T00171039
KBOS 111654Z 28015G21KT 10SM FEW045 FEW090 03/M06 A2997 RMK A02 SLP147 T00281056
KBOS 111754Z 28013KT 10SM FEW040 03/M06 A2995 RMK AO2 SLP143 T00331056 10033 20000 56010
KBOS 111854Z 28009KT 10SM SCT040 03/M06 A2995 RMK AO2 SLP143 T00331061
KBOS 111954Z 27009KT 10SM FEW044 SCT200 03/M07 A2997 RMK AO2 SLP146 T00331067
KBOS 112054Z 30006KT 10SM FEW044 SCT200 03/M07 A2999 RMK AO2 SLP154 T00281067 53011
KBOS 112154Z 28006KT 10SM FEW027 SCT044 BKN170 BKN250 02/M07 A3001 RMK AO2 SLP160 T00221067
KBOS 112254Z 29007KT 10SM FEW027 SCT050 BKN170 02/M07 A3003 RMK AO2 SLP167 T00221072
KBOS 112354Z 30004KT 10SM FEW045 BKN170 02/M08 A3002 RMK AO2 SLP166 T00171078 10039 20017 50012